Time,TemperatureF,DewpointF,PressureIn,WindDirection,WindDirectionDegrees,WindSpeedMPH,WindSpeedGustMPH,Humidity,HourlyPrecipIn,Conditions,Clouds,dailyrainin,SoftwareType,DateUTC
2013-08-20 00:00:00,59.7,57.4,29.87,West,281,0.0,0.0,92,0.00,,,0.00,Wunderground v.1.15,2013-08-20 04:00:00,
2013-08-20 00:10:00,59.5,57.5,29.87,West,281,0.0,0.0,93,0.00,,,0.00,Wunderground v.1.15,2013-08-20 04:10:00,
2013-08-20 00:19:00,59.6,57.6,29.87,West,281,0.0,0.0,93,0.00,,,0.00,Wunderground v.1.15,2013-08-20 04:19:00,
2013-08-20 00:30:00,59.5,57.5,29.87,West,281,0.0,0.0,93,0.00,,,0.00,Wunderground v.1.15,2013-08-20 04:30:00,
2013-08-20 00:40:00,59.2,57.2,29.87,West,281,0.0,0.0,93,0.00,,,0.00,Wunderground v.1.15,2013-08-20 04:40:00,
2013-08-20 00:50:00,59.0,57.0,29.87,West,281,0.0,0.0,93,0.00,,,0.00,Wunderground v.1.15,2013-08-20 04:50:00,
2013-08-20 01:00:00,59.0,57.0,29.87,West,281,0.0,0.0,93,0.00,,,0.00,Wunderground v.1.15,2013-08-20 05:00:00,
2013-08-20 01:10:00,59.0,56.7,29.88,West,281,0.0,0.0,92,0.00,,,0.00,Wunderground v.1.15,2013-08-20 05:10:00,
2013-08-20 01:19:00,59.1,57.1,29.88,West,281,0.0,3.0,93,0.00,,,0.00,Wunderground v.1.15,2013-08-20 05:19:00,
2013-08-20 01:30:00,59.9,57.9,29.88,SSW,207,1.0,4.0,93,0.00,,,0.00,Wunderground v.1.15,2013-08-20 05:30:00,
2013-08-20 01:39:00,59.9,57.3,29.88,SSW,207,0.0,0.0,91,0.00,,,0.00,Wunderground v.1.15,2013-08-20 05:39:00,
2013-08-20 01:50:00,59.5,57.2,29.89,SSW,207,0.0,0.0,92,0.00,,,0.00,Wunderground v.1.15,2013-08-20 05:50:00,
2013-08-20 02:00:00,59.0,56.7,29.89,SSW,207,0.0,0.0,92,0.00,,,0.00,Wunderground v.1.15,2013-08-20 06:00:00,
2013-08-20 02:10:00,59.0,57.0,29.89,SSW,207,0.0,0.0,93,0.00,,,0.00,Wunderground v.1.15,2013-08-20 06:10:00,
2013-08-20 02:19:00,59.0,57.0,29.89,SSW,207,0.0,0.0,93,0.00,,,0.00,Wunderground v.1.15,2013-08-20 06:19:00,
2013-08-20 02:30:00,59.0,57.0,29.89,SSW,207,0.0,0.0,93,0.00,,,0.00,Wunderground v.1.15,2013-08-20 06:30:00,
2013-08-20 02:39:00,60.0,58.3,29.89,SSW,213,1.0,1.0,94,0.00,,,0.00,Wunderground v.1.15,2013-08-20 06:39:00,
2013-08-20 02:50:00,60.5,58.5,29.90,SSW,211,0.0,0.0,93,0.00,,,0.00,Wunderground v.1.15,2013-08-20 06:50:00,
2013-08-20 03:00:00,60.9,58.6,29.90,SSW,203,0.0,0.0,92,0.00,,,0.00,Wunderground v.1.15,2013-08-20 07:00:00,
2013-08-20 03:10:00,61.2,58.9,29.90,SSW,211,2.0,2.0,92,0.00,,,0.00,Wunderground v.1.15,2013-08-20 07:10:00,
2013-08-20 03:20:00,60.8,58.5,29.90,SW,221,1.0,1.0,92,0.00,,,0.00,Wunderground v.1.15,2013-08-20 07:20:00,
2013-08-20 03:30:00,60.4,58.1,29.90,SW,221,0.0,0.0,92,0.00,,,0.01,Wunderground v.1.15,2013-08-20 07:30:00,
2013-08-20 03:39:00,60.2,58.2,29.90,SW,221,0.0,0.0,93,0.00,,,0.01,Wunderground v.1.15,2013-08-20 07:39:00,
2013-08-20 03:49:00,60.2,58.5,29.89,SW,221,0.0,0.0,94,0.00,,,0.01,Wunderground v.1.15,2013-08-20 07:49:00,
2013-08-20 04:00:00,60.1,58.4,29.89,SW,221,0.0,0.0,94,0.00,,,0.01,Wunderground v.1.15,2013-08-20 08:00:00,
2013-08-20 04:09:00,60.0,58.6,29.89,SW,221,0.0,0.0,95,0.00,,,0.01,Wunderground v.1.15,2013-08-20 08:09:00,
2013-08-20 04:20:00,59.9,58.5,29.89,SW,221,0.0,0.0,95,0.00,,,0.01,Wunderground v.1.15,2013-08-20 08:20:00,
2013-08-20 04:30:00,59.8,58.4,29.89,SW,221,0.0,0.0,95,0.00,,,0.01,Wunderground v.1.15,2013-08-20 08:30:00,
2013-08-20 04:40:00,59.8,58.4,29.90,SW,221,0.0,0.0,95,0.00,,,0.01,Wunderground v.1.15,2013-08-20 08:40:00,
2013-08-20 04:49:00,59.8,58.7,29.91,SW,221,0.0,0.0,96,0.00,,,0.01,Wunderground v.1.15,2013-08-20 08:49:00,
2013-08-20 05:00:00,59.8,58.7,29.91,SW,214,2.0,2.0,96,0.00,,,0.01,Wunderground v.1.15,2013-08-20 09:00:00,
2013-08-20 05:09:00,59.9,58.8,29.91,West,280,0.0,0.0,96,0.00,,,0.01,Wunderground v.1.15,2013-08-20 09:09:00,
2013-08-20 05:19:00,59.7,58.3,29.92,WNW,284,0.0,0.0,95,0.00,,,0.01,Wunderground v.1.15,2013-08-20 09:19:00,
2013-08-20 05:30:00,59.6,58.2,29.92,WNW,284,0.0,0.0,95,0.00,,,0.01,Wunderground v.1.15,2013-08-20 09:30:00,
2013-08-20 05:40:00,59.3,58.2,29.93,WNW,284,1.0,1.0,96,0.00,,,0.01,Wunderground v.1.15,2013-08-20 09:40:00,
2013-08-20 05:49:00,60.1,59.2,29.93,WNW,296,1.0,1.0,97,0.00,,,0.01,Wunderground v.1.15,2013-08-20 09:49:00,
2013-08-20 06:00:00,60.7,59.6,29.93,WNW,294,0.0,0.0,96,0.00,,,0.01,Wunderground v.1.15,2013-08-20 10:00:00,
2013-08-20 06:10:00,61.0,59.9,29.93,WNW,294,0.0,0.0,96,0.00,,,0.01,Wunderground v.1.15,2013-08-20 10:10:00,
2013-08-20 06:19:00,60.7,59.3,29.94,WNW,294,0.0,0.0,95,0.00,,,0.01,Wunderground v.1.15,2013-08-20 10:19:00,
2013-08-20 06:30:00,60.5,59.1,29.94,WNW,294,0.0,0.0,95,0.00,,,0.01,Wunderground v.1.15,2013-08-20 10:30:00,
2013-08-20 06:40:00,60.3,58.9,29.94,WNW,294,0.0,0.0,95,0.00,,,0.01,Wunderground v.1.15,2013-08-20 10:40:00,
2013-08-20 06:49:00,60.2,59.1,29.94,WNW,294,0.0,0.0,96,0.00,,,0.01,Wunderground v.1.15,2013-08-20 10:49:00,
2013-08-20 07:00:00,60.4,59.3,29.94,WNW,294,0.0,0.0,96,0.00,,,0.01,Wunderground v.1.15,2013-08-20 11:00:00,
2013-08-20 07:09:00,60.7,59.6,29.95,WNW,294,0.0,0.0,96,0.00,,,0.01,Wunderground v.1.15,2013-08-20 11:09:00,
2013-08-20 07:19:00,61.0,59.9,29.95,WNW,294,0.0,0.0,96,0.00,,,0.01,Wunderground v.1.15,2013-08-20 11:19:00,
2013-08-20 07:30:00,61.3,60.2,29.95,WNW,294,0.0,0.0,96,0.00,,,0.01,Wunderground v.1.15,2013-08-20 11:30:00,
2013-08-20 07:40:00,61.5,60.3,29.95,WNW,294,0.0,0.0,96,0.00,,,0.01,Wunderground v.1.15,2013-08-20 11:40:00,
2013-08-20 07:49:00,61.9,60.7,29.95,WNW,294,0.0,0.0,96,0.00,,,0.01,Wunderground v.1.15,2013-08-20 11:49:00,
2013-08-20 08:00:00,62.0,60.8,29.95,WNW,294,0.0,0.0,96,0.00,,,0.01,Wunderground v.1.15,2013-08-20 12:00:00,
2013-08-20 08:09:00,62.5,61.3,29.95,WNW,294,0.0,0.0,96,0.00,,,0.01,Wunderground v.1.15,2013-08-20 12:09:00,
2013-08-20 08:19:00,62.9,61.7,29.96,WNW,294,0.0,0.0,96,0.00,,,0.01,Wunderground v.1.15,2013-08-20 12:19:00,
2013-08-20 08:30:00,63.4,61.9,29.95,WNW,294,0.0,0.0,95,0.00,,,0.01,Wunderground v.1.15,2013-08-20 12:30:00,
2013-08-20 08:39:00,63.9,62.1,29.96,WNW,294,0.0,0.0,94,0.00,,,0.01,Wunderground v.1.15,2013-08-20 12:39:00,
2013-08-20 08:50:00,64.5,62.7,29.95,NNE,24,0.0,0.0,94,0.00,,,0.01,Wunderground v.1.15,2013-08-20 12:50:00,
2013-08-20 09:09:00,66.2,64.4,29.95,SSE,168,0.0,0.0,94,0.00,,,0.01,Wunderground v.1.15,2013-08-20 13:09:00,
2013-08-20 09:19:00,67.1,64.4,29.97,SSW,192,0.0,3.0,91,0.00,,,0.01,Wunderground v.1.15,2013-08-20 13:19:00,
2013-08-20 09:30:00,67.1,64.1,29.96,SW,214,1.0,1.0,90,0.00,,,0.01,Wunderground v.1.15,2013-08-20 13:30:00,
2013-08-20 09:39:00,68.1,65.1,29.95,South,170,0.0,0.0,90,0.00,,,0.02,Wunderground v.1.15,2013-08-20 13:39:00,
2013-08-20 09:50:00,68.4,64.0,29.96,SW,221,1.0,1.0,86,0.00,,,0.02,Wunderground v.1.15,2013-08-20 13:50:00,
2013-08-20 10:00:00,68.6,64.2,29.96,South,169,0.0,0.0,86,0.00,,,0.02,Wunderground v.1.15,2013-08-20 14:00:00,
2013-08-20 10:10:00,68.7,64.7,29.95,South,169,0.0,0.0,87,0.00,,,0.02,Wunderground v.1.15,2013-08-20 14:10:00,
2013-08-20 10:20:00,68.8,64.4,29.96,South,174,0.0,0.0,86,0.00,,,0.02,Wunderground v.1.15,2013-08-20 14:20:00,
2013-08-20 10:30:00,68.7,64.7,29.96,SW,222,0.0,1.0,87,0.00,,,0.02,Wunderground v.1.15,2013-08-20 14:30:00,
2013-08-20 10:39:00,68.5,64.8,29.96,SW,221,1.0,1.0,88,0.00,,,0.02,Wunderground v.1.15,2013-08-20 14:39:00,
2013-08-20 10:50:00,68.3,64.9,29.96,SW,221,1.0,1.0,89,0.00,,,0.02,Wunderground v.1.15,2013-08-20 14:50:00,
2013-08-20 11:00:00,68.4,64.4,29.96,SW,217,0.0,1.0,87,0.00,,,0.02,Wunderground v.1.15,2013-08-20 15:00:00,
2013-08-20 11:10:00,69.0,64.6,29.96,SW,214,0.0,1.0,86,0.00,,,0.02,Wunderground v.1.15,2013-08-20 15:10:00,
2013-08-20 11:19:00,70.2,65.1,29.95,South,179,1.0,1.0,84,0.00,,,0.02,Wunderground v.1.15,2013-08-20 15:19:00,
2013-08-20 11:30:00,71.1,66.0,29.95,ESE,103,0.0,0.0,84,0.00,,,0.02,Wunderground v.1.15,2013-08-20 15:30:00,
2013-08-20 11:40:00,72.1,65.9,29.96,WSW,245,1.0,1.0,81,0.00,,,0.02,Wunderground v.1.15,2013-08-20 15:40:00,
2013-08-20 11:49:00,72.3,66.1,29.96,SW,225,2.0,2.0,81,0.00,,,0.02,Wunderground v.1.15,2013-08-20 15:49:00,
2013-08-20 12:00:00,72.4,66.6,29.95,SE,137,2.0,2.0,82,0.00,,,0.02,Wunderground v.1.15,2013-08-20 16:00:00,
2013-08-20 12:09:00,72.4,65.9,29.95,East,79,0.0,0.0,80,0.00,,,0.02,Wunderground v.1.15,2013-08-20 16:09:00,
2013-08-20 12:20:00,72.4,66.9,29.95,ENE,75,0.0,0.0,83,0.00,,,0.02,Wunderground v.1.15,2013-08-20 16:20:00,
2013-08-20 12:30:00,72.2,66.0,29.96,East,83,0.0,0.0,81,0.00,,,0.02,Wunderground v.1.15,2013-08-20 16:30:00,
2013-08-20 12:39:00,72.0,66.6,29.96,East,83,0.0,0.0,83,0.00,,,0.02,Wunderground v.1.15,2013-08-20 16:39:00,
2013-08-20 12:49:00,71.6,66.8,29.95,East,83,0.0,0.0,85,0.00,,,0.02,Wunderground v.1.15,2013-08-20 16:49:00,
2013-08-20 13:00:00,71.1,66.0,29.96,East,83,0.0,0.0,84,0.00,,,0.02,Wunderground v.1.15,2013-08-20 17:00:00,
2013-08-20 13:09:00,71.3,66.6,29.97,SE,131,0.0,0.0,85,0.00,,,0.02,Wunderground v.1.15,2013-08-20 17:09:00,
2013-08-20 13:19:00,71.9,66.5,29.97,SW,230,2.0,2.0,83,0.00,,,0.02,Wunderground v.1.15,2013-08-20 17:19:00,
2013-08-20 13:30:00,72.2,66.7,29.97,NE,46,0.0,0.0,83,0.00,,,0.02,Wunderground v.1.15,2013-08-20 17:30:00,
2013-08-20 13:39:00,72.1,66.6,29.96,SSW,195,0.0,0.0,83,0.00,,,0.02,Wunderground v.1.15,2013-08-20 17:39:00,
2013-08-20 13:50:00,72.6,67.1,29.97,WNW,283,2.0,2.0,83,0.00,,,0.02,Wunderground v.1.15,2013-08-20 17:50:00,
2013-08-20 14:00:00,73.1,67.6,29.96,NNE,33,3.0,3.0,83,0.00,,,0.02,Wunderground v.1.15,2013-08-20 18:00:00,
2013-08-20 14:10:00,74.1,67.9,29.97,NNE,21,2.0,2.0,81,0.00,,,0.02,Wunderground v.1.15,2013-08-20 18:10:00,
2013-08-20 14:19:00,74.1,67.2,29.96,NNE,28,0.0,0.0,79,0.00,,,0.02,Wunderground v.1.15,2013-08-20 18:19:00,
2013-08-20 14:30:00,73.7,67.1,29.96,ENE,64,1.0,1.0,80,0.00,,,0.02,Wunderground v.1.15,2013-08-20 18:30:00,
2013-08-20 14:40:00,73.3,66.8,29.96,ENE,68,1.0,5.0,80,0.00,,,0.02,Wunderground v.1.15,2013-08-20 18:40:00,
2013-08-20 14:49:00,73.1,66.9,29.96,NE,54,1.0,1.0,81,0.00,,,0.02,Wunderground v.1.15,2013-08-20 18:49:00,
2013-08-20 15:00:00,72.9,67.1,29.96,NE,52,1.0,1.0,82,0.00,,,0.02,Wunderground v.1.15,2013-08-20 19:00:00,
2013-08-20 15:09:00,72.5,66.7,29.96,ENE,68,1.0,2.0,82,0.00,,,0.02,Wunderground v.1.15,2013-08-20 19:09:00,
2013-08-20 15:19:00,73.1,68.0,29.95,ENE,57,1.0,1.0,84,0.00,,,0.02,Wunderground v.1.15,2013-08-20 19:19:00,
2013-08-20 15:30:00,73.7,68.2,29.95,ENE,65,0.0,0.0,83,0.00,,,0.02,Wunderground v.1.15,2013-08-20 19:30:00,
2013-08-20 15:40:00,73.7,67.5,29.95,NE,51,0.0,0.0,81,0.00,,,0.02,Wunderground v.1.15,2013-08-20 19:40:00,
2013-08-20 15:49:00,73.5,68.4,29.95,ENE,67,1.0,1.0,84,0.00,,,0.02,Wunderground v.1.15,2013-08-20 19:49:00,
2013-08-20 16:00:00,73.3,67.8,29.95,ENE,72,0.0,0.0,83,0.00,,,0.02,Wunderground v.1.15,2013-08-20 20:00:00,
2013-08-20 16:10:00,73.2,67.4,29.96,ENE,73,0.0,0.0,82,0.00,,,0.02,Wunderground v.1.15,2013-08-20 20:10:00,
2013-08-20 16:19:00,74.0,67.1,29.96,ENE,72,0.0,0.0,79,0.00,,,0.02,Wunderground v.1.15,2013-08-20 20:19:00,
2013-08-20 16:30:00,74.1,67.5,29.95,ENE,72,0.0,0.0,80,0.00,,,0.02,Wunderground v.1.15,2013-08-20 20:30:00,
2013-08-20 16:40:00,74.2,66.9,29.96,ENE,73,0.0,0.0,78,0.00,,,0.02,Wunderground v.1.15,2013-08-20 20:40:00,
2013-08-20 16:49:00,74.7,67.4,29.96,ENE,72,0.0,0.0,78,0.00,,,0.02,Wunderground v.1.15,2013-08-20 20:49:00,
2013-08-20 17:00:00,74.9,67.6,29.95,ENE,73,0.0,0.0,78,0.00,,,0.02,Wunderground v.1.15,2013-08-20 21:00:00,
2013-08-20 17:09:00,74.4,66.3,29.96,ENE,62,0.0,0.0,76,0.00,,,0.02,Wunderground v.1.15,2013-08-20 21:09:00,
2013-08-20 17:19:00,73.9,67.3,29.96,ENE,62,0.0,0.0,80,0.00,,,0.02,Wunderground v.1.15,2013-08-20 21:19:00,
2013-08-20 17:30:00,73.6,67.4,29.97,ENE,62,0.0,0.0,81,0.00,,,0.02,Wunderground v.1.15,2013-08-20 21:30:00,
2013-08-20 17:39:00,73.3,67.8,29.97,ENE,62,0.0,0.0,83,0.00,,,0.02,Wunderground v.1.15,2013-08-20 21:39:00,
2013-08-20 17:49:00,73.0,67.5,29.97,ENE,62,0.0,0.0,83,0.00,,,0.02,Wunderground v.1.15,2013-08-20 21:49:00,
2013-08-20 18:00:00,72.7,67.6,29.97,ENE,62,0.0,0.0,84,0.00,,,0.02,Wunderground v.1.15,2013-08-20 22:00:00,
2013-08-20 18:09:00,72.4,67.6,29.98,ENE,61,0.0,0.0,85,0.00,,,0.02,Wunderground v.1.15,2013-08-20 22:09:00,
2013-08-20 18:19:00,71.9,67.8,29.98,ENE,62,0.0,0.0,87,0.00,,,0.02,Wunderground v.1.15,2013-08-20 22:19:00,
2013-08-20 18:30:00,71.3,67.6,29.98,ENE,61,0.0,0.0,88,0.00,,,0.02,Wunderground v.1.15,2013-08-20 22:30:00,
2013-08-20 18:40:00,70.8,67.7,29.98,ENE,62,0.0,0.0,90,0.00,,,0.02,Wunderground v.1.15,2013-08-20 22:40:00,
2013-08-20 18:49:00,70.3,67.2,29.99,ENE,62,0.0,0.0,90,0.00,,,0.02,Wunderground v.1.15,2013-08-20 22:49:00,
2013-08-20 19:00:00,70.3,67.2,29.98,ENE,62,0.0,1.0,90,0.00,,,0.02,Wunderground v.1.15,2013-08-20 23:00:00,
2013-08-20 19:09:00,70.0,67.3,29.98,ENE,62,0.0,0.0,91,0.00,,,0.02,Wunderground v.1.15,2013-08-20 23:09:00,
2013-08-20 19:19:00,69.6,67.2,29.98,ENE,61,0.0,0.0,92,0.00,,,0.02,Wunderground v.1.15,2013-08-20 23:19:00,
2013-08-20 19:30:00,69.1,66.7,29.98,ENE,61,0.0,0.0,92,0.00,,,0.02,Wunderground v.1.15,2013-08-20 23:30:00,
2013-08-20 19:39:00,68.7,66.9,29.98,ENE,61,0.0,0.0,94,0.00,,,0.02,Wunderground v.1.15,2013-08-20 23:39:00,
2013-08-20 19:50:00,68.6,66.8,29.98,ENE,62,0.0,0.0,94,0.00,,,0.02,Wunderground v.1.15,2013-08-20 23:50:00,
2013-08-20 20:00:00,68.5,66.7,29.98,ENE,62,0.0,0.0,94,0.00,,,0.02,Wunderground v.1.15,2013-08-21 00:00:00,
2013-08-20 20:10:00,68.3,66.5,29.98,ENE,62,0.0,0.0,94,0.00,,,0.02,Wunderground v.1.15,2013-08-21 00:10:00,
2013-08-20 20:19:00,68.0,66.2,29.99,ENE,61,0.0,0.0,94,0.00,,,0.02,Wunderground v.1.15,2013-08-21 00:19:00,
2013-08-20 20:30:00,67.6,66.1,29.99,ENE,62,0.0,0.0,95,0.00,,,0.02,Wunderground v.1.15,2013-08-21 00:30:00,
2013-08-20 20:40:00,67.3,65.8,30.00,ENE,62,0.0,0.0,95,0.00,,,0.02,Wunderground v.1.15,2013-08-21 00:40:00,
2013-08-20 20:50:00,67.1,65.6,29.99,ENE,62,0.0,0.0,95,0.00,,,0.02,Wunderground v.1.15,2013-08-21 00:50:00,
2013-08-20 21:00:00,66.6,65.1,29.99,ENE,62,0.0,0.0,95,0.00,,,0.02,Wunderground v.1.15,2013-08-21 01:00:00,
2013-08-20 21:09:00,66.1,64.6,29.99,ENE,62,0.0,0.0,95,0.00,,,0.02,Wunderground v.1.15,2013-08-21 01:09:00,
2013-08-20 21:20:00,65.9,64.4,30.00,ENE,62,0.0,0.0,95,0.00,,,0.02,Wunderground v.1.15,2013-08-21 01:20:00,
2013-08-20 21:30:00,65.7,64.5,30.00,ENE,62,0.0,0.0,96,0.00,,,0.02,Wunderground v.1.15,2013-08-21 01:30:00,
2013-08-20 21:39:00,65.6,64.4,30.00,ENE,61,0.0,0.0,96,0.00,,,0.02,Wunderground v.1.15,2013-08-21 01:39:00,
2013-08-20 21:49:00,65.2,64.0,30.00,ENE,62,0.0,0.0,96,0.00,,,0.02,Wunderground v.1.15,2013-08-21 01:49:00,
2013-08-20 22:00:00,65.0,63.8,30.00,ENE,62,0.0,0.0,96,0.00,,,0.02,Wunderground v.1.15,2013-08-21 02:00:00,
2013-08-20 22:09:00,64.7,63.5,30.00,ENE,61,0.0,0.0,96,0.00,,,0.02,Wunderground v.1.15,2013-08-21 02:09:00,
2013-08-20 22:20:00,64.6,63.4,30.01,ENE,61,0.0,0.0,96,0.00,,,0.02,Wunderground v.1.15,2013-08-21 02:20:00,
2013-08-20 22:30:00,64.7,63.8,30.01,ENE,62,0.0,0.0,97,0.00,,,0.02,Wunderground v.1.15,2013-08-21 02:30:00,
2013-08-20 22:39:00,64.6,63.7,30.01,ENE,62,0.0,0.0,97,0.00,,,0.02,Wunderground v.1.15,2013-08-21 02:39:00,
2013-08-20 22:49:00,64.5,63.6,30.00,ENE,62,0.0,0.0,97,0.00,,,0.02,Wunderground v.1.15,2013-08-21 02:49:00,
2013-08-20 23:00:00,64.2,63.0,30.00,ENE,61,0.0,0.0,96,0.00,,,0.02,Wunderground v.1.15,2013-08-21 03:00:00,
2013-08-20 23:09:00,63.1,61.9,30.00,ENE,61,0.0,0.0,96,0.00,,,0.02,Wunderground v.1.15,2013-08-21 03:09:00,
2013-08-20 23:19:00,63.1,62.2,30.00,ENE,61,0.0,0.0,97,0.00,,,0.02,Wunderground v.1.15,2013-08-21 03:19:00,
2013-08-20 23:30:00,63.5,62.6,30.00,ENE,61,0.0,0.0,97,0.00,,,0.02,Wunderground v.1.15,2013-08-21 03:30:00,
2013-08-20 23:39:00,63.3,62.4,30.00,ENE,62,0.0,0.0,97,0.00,,,0.02,Wunderground v.1.15,2013-08-21 03:39:00,
2013-08-20 23:49:00,63.2,62.3,30.00,ENE,62,0.0,0.0,97,0.00,,,0.02,Wunderground v.1.15,2013-08-21 03:49:00,